This is the latest recevied weather packets stored in our database for station/object AF9W-5. If no packets are shown the sender has not sent any weather packets the latest 10 day(s).
| Time | Temp. | Humidity | Pressure | Rain* | Wind** | Luminosity | Snow |
|---|---|---|---|---|---|---|---|
| 1777225815 | 20.56° C | 41% | 1011.5 hPa | 0 mm | - | 948 W/m² | - |
| 1777225511 | 21.67° C | 40% | 1011.8 hPa | 0 mm | - | 938 W/m² | - |
| 1777225208 | 21.11° C | 40% | 1011.5 hPa | 0 mm | - | 857 W/m² | - |
| 1777224904 | 20.56° C | 42% | 1011.8 hPa | 0 mm | - | 811 W/m² | - |
| 1777224601 | 20° C | 43% | 1011.5 hPa | 0 mm | - | 813 W/m² | - |
| 1777224296 | 20.56° C | 41% | 1011.8 hPa | 0 mm | - | 767 W/m² | - |
| 1777223993 | 20° C | 42% | 1011.3 hPa | 0 mm | - | 753 W/m² | - |
| 1777223690 | 20.56° C | 40% | 1011.3 hPa | 0 mm | - | 735 W/m² | - |
| 1777223386 | 20° C | 42% | 1011.5 hPa | 0 mm | - | 717 W/m² | - |
| 1777223084 | 19.44° C | 42% | 1011.5 hPa | 0 mm | - | 699 W/m² | - |
| 1777222780 | 20° C | 42% | 1011.4 hPa | 0 mm | - | 692 W/m² | - |
| 1777222473 | 18.89° C | 43% | 1011.3 hPa | 0 mm | - | 656 W/m² | - |
| 1777222169 | 18.89° C | 43% | 1011.3 hPa | 0 mm | - | 656 W/m² | - |
| 1777221868 | 18.89° C | 43% | 1011.4 hPa | 0 mm | - | 651 W/m² | - |
| 1777221568 | 19.44° C | 43% | 1011.3 hPa | 0 mm | - | 639 W/m² | - |
| 1777221265 | 18.89° C | 42% | 1011.2 hPa | 0 mm | - | 626 W/m² | - |
| 1777220962 | 18.89° C | 42% | 1011.5 hPa | 0 mm | - | 620 W/m² | - |
| 1777220657 | 17.78° C | 45% | 1011.2 hPa | 0 mm | - | 593 W/m² | - |
| 1777220354 | 17.78° C | 46% | 1011.3 hPa | 0 mm | - | 139 W/m² | - |
| 1777220054 | 20° C | 42% | 1011.3 hPa | 0 mm | - | 576 W/m² | - |
| 1777219751 | 18.89° C | 42% | 1011 hPa | 0 mm | - | 549 W/m² | - |
| 1777219448 | 17.78° C | 44% | 1011.1 hPa | 0 mm | - | 531 W/m² | - |
| 1777219144 | 17.78° C | 44% | 1010.9 hPa | 0 mm | - | 516 W/m² | - |
| 1777218840 | 18.33° C | 46% | 1010.8 hPa | 0 mm | - | 503 W/m² | - |
| 1777218536 | 18.33° C | 43% | 1010.7 hPa | 0 mm | - | 483 W/m² | - |
* Rain latest hour (hover to see other rain measurements)
** Current wind speed in m/s (hover to see current wind gust speed)